createdAt,value
2018-10-01T00:02:30.696Z,71.70
2018-10-01T00:04:58.848Z,71.90
2018-10-01T00:07:27.040Z,71.80
2018-10-01T00:10:15.425Z,72.00
2018-10-01T00:12:43.581Z,72.00
2018-10-01T00:15:11.736Z,72.10
2018-10-01T00:17:39.985Z,72.20
2018-10-01T00:20:13.520Z,72.00
2018-10-01T00:22:46.753Z,71.90
2018-10-01T00:25:15.244Z,72.00
2018-10-01T00:27:43.432Z,72.10
2018-10-01T00:30:11.619Z,72.30
2018-10-01T00:32:39.777Z,72.20
2018-10-01T00:35:07.932Z,72.10
2018-10-01T00:37:36.192Z,72.00
2018-10-01T00:40:04.459Z,72.20
2018-10-01T00:42:32.765Z,72.50
2018-10-01T00:45:00.991Z,73.20
2018-10-01T00:47:29.162Z,72.40
2018-10-01T00:49:57.316Z,72.60
2018-10-01T00:52:25.496Z,72.70
2018-10-01T00:54:53.745Z,72.60
2018-10-01T00:57:22.138Z,72.80
2018-10-01T00:59:50.309Z,72.90
2018-10-01T01:02:18.468Z,73.00
2018-10-01T01:04:46.750Z,72.90
2018-10-01T01:07:14.936Z,73.30
2018-10-01T01:09:43.104Z,73.10
2018-10-01T01:12:11.254Z,73.00
2018-10-01T01:14:39.597Z,73.30
2018-10-01T01:17:07.904Z,73.30
2018-10-01T01:19:36.121Z,73.30
2018-10-01T01:22:04.269Z,73.30
2018-10-01T01:24:32.620Z,73.30
2018-10-01T01:27:00.783Z,73.20
2018-10-01T01:29:29.067Z,73.30
2018-10-01T01:31:58.340Z,73.30
2018-10-01T01:34:26.530Z,73.30
2018-10-01T01:36:54.751Z,73.30
2018-10-01T01:39:22.933Z,73.50
2018-10-01T01:41:51.135Z,73.60
2018-10-01T01:44:19.540Z,73.80
2018-10-01T01:46:47.728Z,73.90
2018-10-01T01:49:15.898Z,73.90
2018-10-01T01:51:44.095Z,74.10
2018-10-01T01:54:12.300Z,74.10
2018-10-01T01:56:40.529Z,74.20
2018-10-01T01:59:09.045Z,74.20
2018-10-01T02:01:37.265Z,74.00
2018-10-01T02:04:05.474Z,74.10
2018-10-01T02:06:33.636Z,74.10
2018-10-01T02:09:02.113Z,74.10
2018-10-01T02:11:30.273Z,74.30
2018-10-01T02:13:58.451Z,74.30
2018-10-01T02:16:26.694Z,75.00
2018-10-01T02:18:54.878Z,74.40
2018-10-01T02:21:23.049Z,74.50
2018-10-01T02:23:51.325Z,74.50
2018-10-01T02:26:19.500Z,74.50
2018-10-01T02:28:47.718Z,74.30
2018-10-01T02:31:15.926Z,74.40
2018-10-01T02:33:44.104Z,74.50
2018-10-01T02:36:12.293Z,74.80
2018-10-01T02:38:40.594Z,74.70
2018-10-01T02:41:09.268Z,74.80
2018-10-01T02:43:37.652Z,74.90
2018-10-01T02:46:05.865Z,74.80
2018-10-01T02:48:34.066Z,74.90
2018-10-01T02:51:02.261Z,74.90
2018-10-01T02:53:35.760Z,74.90
2018-10-01T02:56:04.212Z,75.00
2018-10-01T02:58:32.417Z,75.00
2018-10-01T03:01:04.297Z,75.10
2018-10-01T03:03:32.472Z,75.20
2018-10-01T03:06:00.697Z,75.30
2018-10-01T03:08:28.877Z,75.30
2018-10-01T03:10:57.248Z,75.30
2018-10-01T03:13:25.442Z,75.30
2018-10-01T03:15:53.637Z,75.50
2018-10-01T03:18:21.876Z,75.60
2018-10-01T03:20:50.092Z,75.60
2018-10-01T03:23:18.272Z,75.50
2018-10-01T03:26:02.083Z,75.50
2018-10-01T03:28:30.273Z,75.40
2018-10-01T03:30:58.528Z,75.50
2018-10-01T03:33:26.884Z,75.50
2018-10-01T03:35:55.072Z,75.60
2018-10-01T03:38:23.264Z,75.60
2018-10-01T03:40:51.432Z,75.70
2018-10-01T03:43:19.709Z,75.60
2018-10-01T03:45:48.226Z,75.90
2018-10-01T03:48:16.447Z,75.80
2018-10-01T03:50:44.644Z,75.90
2018-10-01T03:53:12.820Z,75.90
2018-10-01T03:55:41.015Z,76.10
2018-10-01T03:58:09.264Z,76.10
2018-10-01T04:00:37.442Z,76.00
2018-10-01T04:03:06.114Z,76.00
2018-10-01T04:05:34.216Z,75.90
2018-10-01T04:08:02.418Z,76.00
2018-10-01T04:10:30.676Z,76.10
2018-10-01T04:12:58.881Z,76.00
2018-10-01T04:15:27.100Z,76.10
2018-10-01T04:17:55.365Z,76.10
2018-10-01T04:20:25.610Z,76.20
2018-10-01T04:22:54.109Z,76.30
2018-10-01T04:25:23.257Z,76.30
2018-10-01T04:27:51.455Z,76.40
2018-10-01T04:30:19.886Z,76.40
2018-10-01T04:32:48.142Z,76.50
2018-10-01T04:35:16.317Z,76.60
2018-10-01T04:37:44.586Z,76.60
2018-10-01T04:40:12.845Z,76.40
2018-10-01T04:42:41.021Z,76.40
2018-10-01T04:45:09.278Z,76.40
2018-10-01T04:47:38.620Z,76.40
2018-10-01T04:50:06.975Z,76.50
2018-10-01T04:52:35.160Z,76.60
2018-10-01T04:55:03.709Z,76.60
2018-10-01T04:57:31.897Z,76.90
2018-10-01T05:00:00.085Z,76.90
2018-10-01T05:02:29.440Z,76.90
2018-10-01T05:04:58.595Z,76.90
2018-10-01T05:07:26.792Z,76.90
2018-10-01T05:09:55.021Z,76.90
2018-10-01T05:12:23.232Z,76.90
2018-10-01T05:14:51.487Z,77.00
2018-10-01T05:17:19.696Z,77.30
2018-10-01T05:19:47.929Z,77.20
2018-10-01T05:22:16.209Z,77.10
2018-10-01T05:24:44.469Z,77.00
2018-10-01T05:27:12.755Z,77.00
2018-10-01T05:29:41.034Z,77.00
2018-10-01T05:32:09.432Z,77.00
2018-10-01T05:34:37.641Z,77.10
2018-10-01T05:37:08.485Z,77.10
2018-10-01T05:39:36.868Z,77.30
2018-10-01T05:42:05.269Z,77.20
2018-10-01T05:44:33.618Z,77.10
2018-10-01T05:47:01.929Z,77.30
2018-10-01T05:49:30.209Z,77.50
2018-10-01T05:51:58.477Z,77.50
2018-10-01T05:54:26.721Z,77.40
2018-10-01T05:57:01.676Z,77.30
2018-10-01T05:59:30.037Z,77.30
2018-10-01T06:01:58.413Z,77.40
2018-10-01T06:04:27.284Z,77.40
2018-10-01T06:06:55.557Z,77.50
2018-10-01T06:09:23.849Z,77.60
2018-10-01T06:11:52.379Z,77.70
2018-10-01T06:14:20.599Z,77.60
2018-10-01T06:16:48.899Z,77.80
2018-10-01T06:19:17.344Z,77.80
2018-10-01T06:21:47.706Z,77.70
2018-10-01T06:24:16.017Z,77.80
2018-10-01T06:26:44.453Z,78.00
2018-10-01T06:29:12.770Z,77.90
2018-10-01T06:31:40.999Z,77.80
2018-10-01T06:34:09.266Z,77.90
2018-10-01T06:36:37.662Z,78.10
2018-10-01T06:39:07.893Z,78.00
2018-10-01T06:41:36.271Z,78.10
2018-10-01T06:44:04.527Z,78.20
2018-10-01T06:46:32.733Z,78.10
2018-10-01T06:49:01.117Z,78.20
2018-10-01T06:51:29.329Z,78.20
2018-10-01T06:53:57.582Z,78.20
2018-10-01T06:56:25.797Z,78.10
2018-10-01T06:58:54.122Z,78.20
2018-10-01T07:01:22.566Z,78.10
2018-10-01T07:03:51.118Z,78.00
2018-10-01T07:06:19.434Z,77.90
2018-10-01T07:08:47.727Z,77.90
2018-10-01T07:11:18.800Z,78.20
2018-10-01T07:13:46.994Z,78.30
2018-10-01T07:16:15.281Z,78.10
2018-10-01T07:18:43.593Z,78.00
2018-10-01T07:21:12.040Z,78.10
2018-10-01T07:23:40.299Z,78.10
2018-10-01T07:26:08.600Z,77.30
2018-10-01T07:28:36.897Z,75.90
2018-10-01T07:31:05.174Z,75.90
2018-10-01T07:33:33.448Z,76.00
2018-10-01T07:36:01.738Z,76.10
2018-10-01T07:38:29.992Z,76.30
2018-10-01T07:40:58.483Z,76.20
2018-10-01T07:43:26.664Z,76.00
2018-10-01T07:45:54.935Z,75.80
2018-10-01T07:48:23.143Z,76.00
2018-10-01T07:50:51.500Z,76.00
2018-10-01T07:53:19.755Z,76.00
2018-10-01T07:55:47.971Z,75.80
2018-10-01T07:58:16.410Z,75.90
2018-10-01T08:00:44.797Z,75.60
2018-10-01T08:03:13.109Z,75.60
2018-10-01T08:08:32.032Z,75.70
2018-10-01T08:11:00.518Z,75.70
2018-10-01T08:13:28.942Z,75.50
2018-10-01T08:15:57.315Z,75.50
2018-10-01T08:18:25.574Z,75.40
2018-10-01T08:20:53.841Z,75.20
2018-10-01T08:23:22.164Z,75.10
2018-10-01T08:28:44.252Z,74.80
2018-10-01T08:31:12.585Z,74.70
2018-10-01T08:33:40.922Z,74.80
2018-10-01T08:36:09.269Z,74.40
2018-10-01T08:38:37.793Z,74.50
2018-10-01T08:41:06.112Z,74.60
2018-10-01T08:43:34.332Z,74.50
2018-10-01T08:46:02.702Z,74.50
2018-10-01T08:48:51.755Z,74.30
2018-10-01T08:51:23.760Z,74.30
2018-10-01T08:54:00.518Z,74.20
2018-10-01T08:56:29.009Z,74.30
2018-10-01T08:58:57.334Z,74.20
2018-10-01T09:01:30.596Z,74.10
2018-10-01T09:03:58.772Z,73.70
2018-10-01T09:06:29.205Z,73.40
2018-10-01T09:08:57.808Z,73.20
2018-10-01T09:11:26.251Z,73.50
2018-10-01T09:13:55.311Z,73.40
2018-10-01T09:16:23.792Z,73.50
2018-10-01T09:18:52.096Z,73.80
2018-10-01T09:21:20.588Z,73.80
2018-10-01T09:23:48.738Z,73.60
2018-10-01T09:26:17.163Z,73.50
2018-10-01T09:28:45.300Z,73.20
2018-10-01T09:31:13.893Z,73.30
2018-10-01T09:33:42.110Z,73.00
2018-10-01T09:36:10.361Z,72.90
2018-10-01T09:38:38.712Z,73.10
2018-10-01T09:41:07.108Z,73.10
2018-10-01T09:43:35.793Z,72.90
2018-10-01T09:46:10.545Z,72.80
2018-10-01T09:48:47.539Z,72.40
2018-10-01T09:53:57.194Z,71.80
2018-10-01T09:56:25.923Z,72.20
2018-10-01T09:59:10.909Z,72.30
2018-10-01T10:01:39.633Z,72.30
2018-10-01T10:04:08.355Z,72.20
2018-10-01T10:06:36.746Z,72.30
2018-10-01T10:09:08.573Z,72.00
2018-10-01T10:11:37.228Z,72.10
2018-10-01T10:14:05.873Z,71.90
2018-10-01T10:16:35.367Z,72.20
2018-10-01T10:19:03.760Z,71.40
2018-10-01T10:21:32.582Z,71.90
2018-10-01T10:24:02.928Z,71.50
2018-10-01T10:26:32.078Z,71.00
2018-10-01T10:29:00.637Z,70.30
2018-10-01T10:31:31.969Z,70.10
2018-10-01T10:34:00.768Z,70.30
2018-10-01T10:36:29.671Z,70.20
2018-10-01T10:38:57.997Z,70.10
2018-10-01T10:41:30.112Z,70.20
2018-10-01T10:43:58.570Z,70.20
2018-10-01T10:46:30.580Z,70.20
2018-10-01T10:48:58.873Z,69.80
2018-10-01T10:51:27.122Z,69.90
2018-10-01T10:53:55.665Z,69.60
2018-10-01T10:56:24.003Z,69.40
2018-10-01T10:58:52.408Z,69.50
2018-10-01T11:01:20.699Z,69.10
2018-10-01T11:03:49.026Z,69.10
2018-10-01T11:06:17.361Z,69.50
2018-10-01T11:08:45.678Z,70.30
2018-10-01T11:11:13.924Z,70.60
2018-10-01T11:13:42.337Z,70.90
2018-10-01T11:16:10.583Z,71.50
2018-10-01T11:18:38.942Z,71.90
2018-10-01T11:21:17.820Z,72.10
2018-10-01T11:23:46.059Z,72.20
2018-10-01T11:26:22.514Z,72.50
2018-10-01T11:28:51.083Z,72.50
2018-10-01T11:33:54.766Z,73.40
2018-10-01T11:36:23.088Z,73.20
2018-10-01T11:38:57.206Z,73.10
2018-10-01T11:41:25.560Z,73.00
2018-10-01T11:43:53.897Z,72.70
2018-10-01T11:46:22.328Z,72.50
2018-10-01T11:48:50.919Z,72.60
2018-10-01T11:51:19.330Z,72.60
2018-10-01T11:53:47.665Z,72.60
2018-10-01T11:56:16.071Z,72.50
2018-10-01T11:58:44.356Z,72.40
2018-10-01T12:01:13.569Z,72.50
2018-10-01T12:03:42.388Z,72.40
2018-10-01T12:06:15.138Z,72.00
2018-10-01T12:08:45.089Z,72.30
2018-10-01T12:11:14.096Z,72.20
2018-10-01T12:13:42.493Z,72.60
2018-10-01T12:16:10.816Z,72.50
2018-10-01T12:18:39.058Z,71.00
2018-10-01T12:21:07.681Z,71.00
2018-10-01T12:23:36.134Z,71.50
2018-10-01T12:34:52.194Z,74.60
2018-10-01T12:37:30.061Z,74.40
2018-10-01T12:40:00.282Z,74.80
2018-10-01T12:42:29.466Z,74.90
2018-10-01T12:48:05.242Z,75.10
2018-10-01T12:50:47.070Z,74.90
2018-10-01T12:53:36.393Z,75.00
2018-10-01T12:56:22.739Z,75.10
2018-10-01T12:59:11.126Z,74.90
2018-10-01T13:01:39.570Z,74.50
2018-10-01T13:04:08.339Z,74.50
2018-10-01T13:06:36.753Z,75.10
2018-10-01T13:09:20.034Z,74.80
2018-10-01T13:11:48.429Z,75.00
2018-10-01T13:14:16.797Z,75.90
2018-10-01T13:16:45.266Z,75.00
2018-10-01T13:19:13.810Z,75.00
2018-10-01T13:21:42.253Z,74.60
2018-10-01T13:24:10.697Z,74.50
2018-10-01T13:26:39.218Z,74.40
2018-10-01T13:29:07.670Z,74.40
2018-10-01T13:31:36.090Z,74.30
2018-10-01T13:34:04.685Z,74.60
2018-10-01T13:36:33.141Z,74.20
2018-10-01T13:39:01.613Z,74.30
2018-10-01T13:41:30.126Z,73.90
2018-10-01T13:43:58.490Z,74.00
2018-10-01T13:46:27.031Z,74.10
2018-10-01T13:48:55.364Z,74.10
2018-10-01T13:51:23.849Z,74.30
2018-10-01T13:53:52.328Z,74.50
2018-10-01T13:56:20.608Z,74.50
2018-10-01T13:58:54.025Z,74.80
2018-10-01T14:01:22.466Z,75.20
2018-10-01T14:03:50.817Z,75.30
2018-10-01T14:06:22.286Z,75.10
2018-10-01T14:08:50.548Z,75.00
2018-10-01T14:11:18.948Z,74.60
2018-10-01T14:13:48.526Z,74.40
2018-10-01T14:19:08.389Z,74.50
2018-10-01T14:21:36.942Z,74.40
2018-10-01T14:24:05.326Z,74.50
2018-10-01T14:26:34.022Z,74.60
2018-10-01T14:29:02.426Z,74.80
2018-10-01T14:31:30.845Z,74.90
2018-10-01T14:33:59.399Z,75.00
2018-10-01T14:36:27.760Z,75.20
2018-10-01T14:39:16.885Z,74.90
2018-10-01T14:41:45.317Z,75.10
2018-10-01T14:44:13.654Z,74.90
2018-10-01T14:46:42.020Z,75.00
2018-10-01T14:49:10.309Z,74.90
2018-10-01T14:51:38.685Z,74.80
2018-10-01T14:54:07.301Z,74.80
2018-10-01T14:56:35.684Z,74.70
2018-10-01T14:59:04.222Z,74.70
2018-10-01T15:01:33.271Z,74.70
2018-10-01T15:04:01.824Z,74.60
2018-10-01T15:06:30.841Z,74.70
2018-10-01T15:09:00.251Z,73.60
2018-10-01T15:11:29.501Z,72.40
2018-10-01T15:14:03.364Z,72.90
2018-10-01T15:16:31.985Z,73.50
2018-10-01T15:19:00.421Z,73.70
2018-10-01T15:21:30.104Z,73.80
2018-10-01T15:24:02.161Z,74.20
2018-10-01T15:26:30.511Z,75.00
2018-10-01T15:28:58.965Z,73.50
2018-10-01T15:31:27.554Z,73.60
2018-10-01T15:33:57.265Z,74.00
2018-10-01T15:36:25.937Z,74.10
2018-10-01T16:02:04.175Z,74.30
2018-10-01T16:04:36.579Z,74.30
2018-10-01T16:07:05.144Z,74.50
2018-10-01T16:09:33.661Z,74.20
2018-10-01T16:12:02.143Z,74.20
2018-10-01T16:14:33.494Z,75.00
2018-10-01T16:17:01.907Z,74.70
2018-10-01T16:19:31.448Z,74.20
2018-10-01T16:27:50.796Z,73.90
2018-10-01T16:30:33.573Z,74.00
2018-10-01T16:33:01.905Z,73.60
2018-10-01T16:35:30.241Z,73.40
2018-10-01T16:37:58.530Z,74.80
2018-10-01T16:40:36.054Z,75.00
2018-10-01T16:43:04.888Z,75.10
2018-10-01T16:45:33.405Z,75.20
2018-10-01T16:48:01.876Z,75.20
2018-10-01T16:50:42.382Z,75.50
2018-10-01T16:53:10.686Z,75.50
2018-10-01T16:55:39.044Z,76.10
2018-10-01T16:58:07.496Z,75.90
2018-10-01T17:00:51.517Z,75.80
2018-10-01T17:03:22.188Z,75.90
2018-10-01T17:05:54.777Z,75.90
2018-10-01T17:08:23.130Z,76.00
2018-10-01T17:10:51.381Z,75.90
2018-10-01T17:13:19.842Z,75.70
2018-10-01T17:15:54.878Z,75.90
2018-10-01T17:18:23.874Z,76.40
2018-10-01T17:20:53.397Z,75.90
2018-10-01T17:23:21.900Z,76.00
2018-10-01T17:25:50.363Z,76.00
2018-10-01T17:28:18.674Z,76.10
2018-10-01T17:30:47.937Z,76.20
2018-10-01T17:33:16.237Z,76.20
2018-10-01T17:35:44.530Z,76.30
2018-10-01T17:38:12.864Z,76.30
2018-10-01T17:40:41.771Z,76.50
2018-10-01T17:43:10.063Z,76.40
2018-10-01T17:45:38.489Z,76.50
2018-10-01T17:51:02.496Z,76.50
2018-10-01T17:53:30.840Z,76.50
2018-10-01T17:55:59.301Z,76.50
2018-10-01T17:58:27.777Z,76.60
2018-10-01T18:00:56.674Z,76.60
2018-10-01T18:03:25.181Z,76.80
2018-10-01T18:05:53.584Z,76.70
2018-10-01T18:08:21.861Z,77.30
2018-10-01T18:10:50.277Z,76.80
2018-10-01T18:13:18.621Z,76.80
2018-10-01T18:15:46.968Z,76.80
2018-10-01T18:18:15.383Z,77.00
2018-10-01T18:20:43.677Z,77.00
2018-10-01T18:23:12.056Z,77.00
2018-10-01T18:25:40.325Z,76.90
2018-10-01T18:28:08.757Z,77.00
2018-10-01T18:30:37.096Z,76.90
2018-10-01T18:33:05.386Z,77.00
2018-10-01T18:35:35.602Z,77.00
2018-10-01T18:38:03.970Z,77.00
2018-10-01T18:40:32.697Z,77.00
2018-10-01T18:43:01.221Z,77.00
2018-10-01T18:45:30.315Z,77.00
2018-10-01T18:48:00.439Z,76.90
2018-10-01T18:50:28.543Z,77.00
2018-10-01T18:52:56.792Z,77.10
2018-10-01T18:55:25.276Z,77.20
2018-10-01T18:57:53.672Z,77.30
2018-10-01T19:00:22.005Z,77.40
2018-10-01T19:02:50.713Z,77.40
2018-10-01T19:05:19.135Z,77.40
2018-10-01T19:07:47.656Z,77.50
2018-10-01T19:10:16.034Z,77.40
2018-10-01T19:12:44.397Z,77.40
2018-10-01T19:15:13.702Z,77.40
2018-10-01T19:17:41.946Z,77.50
2018-10-01T19:20:10.298Z,77.40
2018-10-01T19:22:38.892Z,77.50
2018-10-01T19:25:07.317Z,77.70
2018-10-01T19:27:35.652Z,77.60
2018-10-01T19:30:06.509Z,77.70
2018-10-01T19:32:34.872Z,77.70
2018-10-01T19:35:03.172Z,77.70
2018-10-01T19:37:31.703Z,77.70
2018-10-01T19:40:00.057Z,77.50
2018-10-01T19:42:28.500Z,77.50
2018-10-01T19:44:58.292Z,77.60
2018-10-01T19:47:38.253Z,77.60
2018-10-01T19:50:06.734Z,77.70
2018-10-01T19:52:35.001Z,77.80
2018-10-01T19:55:03.593Z,77.80
2018-10-01T19:57:35.261Z,77.80
2018-10-01T20:00:04.005Z,77.70
2018-10-01T20:02:32.297Z,77.90
2018-10-01T20:05:00.835Z,78.00
2018-10-01T20:07:30.329Z,77.90
2018-10-01T20:10:14.277Z,78.00
2018-10-01T20:12:42.500Z,78.00
2018-10-01T20:15:10.795Z,78.00
2018-10-01T20:17:39.054Z,78.10
2018-10-01T20:20:07.416Z,78.20
2018-10-01T20:22:35.716Z,78.20
2018-10-01T20:25:04.849Z,78.40
2018-10-01T20:27:33.255Z,78.40
2018-10-01T20:30:01.511Z,78.40
2018-10-01T20:32:29.817Z,78.60
2018-10-01T20:34:58.136Z,78.50
2018-10-01T20:37:34.309Z,78.60
2018-10-01T20:40:04.829Z,78.60
2018-10-01T20:42:33.101Z,78.50
2018-10-01T20:45:01.520Z,78.60
2018-10-01T20:47:29.999Z,78.50
2018-10-01T20:49:58.360Z,78.60
2018-10-01T20:52:29.342Z,78.60
2018-10-01T20:54:57.622Z,78.60
2018-10-01T20:57:25.936Z,78.70
2018-10-01T20:59:54.293Z,78.70
2018-10-01T21:02:23.856Z,78.60
2018-10-01T21:04:52.126Z,78.60
2018-10-01T21:07:20.409Z,78.60
2018-10-01T21:09:48.733Z,78.60
2018-10-01T21:12:16.964Z,78.60
2018-10-01T21:14:45.285Z,78.60
2018-10-01T21:17:13.541Z,78.50
2018-10-01T21:19:41.836Z,78.60
2018-10-01T21:22:10.150Z,78.50
2018-10-01T21:24:38.474Z,78.50
2018-10-01T21:27:06.960Z,78.60
2018-10-01T21:29:35.289Z,78.50
2018-10-01T21:32:03.950Z,78.60
2018-10-01T21:34:32.217Z,78.60
2018-10-01T21:37:00.545Z,78.70
2018-10-01T21:39:40.149Z,78.70
2018-10-01T21:42:08.423Z,78.70
2018-10-01T21:44:36.854Z,78.70
2018-10-01T21:47:05.105Z,78.60
2018-10-01T21:49:33.582Z,78.60
2018-10-01T21:52:01.853Z,78.70
2018-10-01T21:54:30.127Z,78.80
2018-10-01T21:56:58.538Z,78.80
2018-10-01T21:59:46.781Z,78.70
2018-10-01T22:02:15.446Z,78.80
2018-10-01T22:04:44.737Z,78.70
2018-10-01T22:07:13.396Z,78.70
2018-10-01T22:09:41.676Z,78.80
2018-10-01T22:12:10.000Z,78.90
2018-10-01T22:14:38.268Z,78.70
2018-10-01T22:17:06.545Z,78.90
2018-10-01T22:19:34.935Z,78.80
2018-10-01T22:22:03.255Z,78.80
2018-10-01T22:24:31.518Z,78.80
2018-10-01T22:27:02.010Z,78.90
2018-10-01T22:29:30.290Z,78.80
2018-10-01T22:31:58.560Z,78.90
2018-10-01T22:34:26.856Z,79.10
2018-10-01T22:36:55.171Z,79.10
2018-10-01T22:39:23.514Z,79.10
2018-10-01T22:41:51.755Z,79.20
2018-10-01T22:44:20.161Z,79.30
2018-10-01T22:46:48.412Z,79.20
2018-10-01T22:49:16.654Z,79.30
2018-10-01T22:51:44.970Z,79.20
2018-10-01T22:54:14.297Z,79.10
2018-10-01T22:56:42.584Z,79.10
2018-10-01T22:59:11.236Z,79.20
2018-10-01T23:01:39.549Z,79.20
2018-10-01T23:04:07.880Z,79.10
2018-10-01T23:06:36.193Z,79.20
2018-10-01T23:09:06.305Z,79.90
2018-10-01T23:11:34.672Z,78.80
2018-10-01T23:14:03.054Z,79.10
2018-10-01T23:16:31.324Z,79.20
2018-10-01T23:18:59.693Z,79.30
2018-10-01T23:21:27.985Z,79.30
2018-10-01T23:23:56.273Z,79.30
2018-10-01T23:26:24.543Z,79.40
2018-10-01T23:28:52.961Z,79.40
2018-10-01T23:31:21.210Z,79.30
2018-10-01T23:33:49.526Z,79.40
2018-10-01T23:36:17.795Z,79.50
2018-10-01T23:38:46.161Z,79.50
2018-10-01T23:41:14.445Z,79.50
2018-10-01T23:43:42.850Z,79.50
2018-10-01T23:46:11.140Z,79.40
2018-10-01T23:48:39.459Z,79.50
2018-10-01T23:51:07.729Z,79.50
2018-10-01T23:53:36.080Z,79.60
2018-10-01T23:56:04.336Z,79.70
2018-10-01T23:58:32.637Z,79.70
